createdAt,value
2022-11-02T00:01:18.742Z,1.83
2022-11-02T00:03:45.676Z,1.70
2022-11-02T00:06:13.722Z,1.90
2022-11-02T00:08:40.853Z,1.50
2022-11-02T00:11:07.773Z,1.67
2022-11-02T00:13:34.865Z,1.43
2022-11-02T00:16:04.654Z,1.80
2022-11-02T00:18:32.684Z,1.67
2022-11-02T00:20:59.760Z,1.60
2022-11-02T00:23:26.680Z,1.60
2022-11-02T00:25:55.343Z,1.40
2022-11-02T00:28:22.408Z,1.70
2022-11-02T00:30:49.336Z,1.50
2022-11-02T00:33:17.593Z,1.57
2022-11-02T00:35:45.761Z,1.70
2022-11-02T00:38:12.839Z,1.80
2022-11-02T00:40:39.810Z,1.70
2022-11-02T00:43:06.962Z,1.50
2022-11-02T00:45:34.212Z,1.50
2022-11-02T00:48:01.763Z,1.60
2022-11-02T00:50:31.511Z,1.60
2022-11-02T00:52:58.479Z,1.63
2022-11-02T00:55:25.511Z,1.40
2022-11-02T00:57:56.062Z,1.33
2022-11-02T01:00:22.964Z,1.53
2022-11-02T01:02:50.005Z,1.50
2022-11-02T01:05:17.231Z,2.20
2022-11-02T01:07:45.488Z,1.60
2022-11-02T01:10:12.521Z,1.80
2022-11-02T01:12:40.651Z,1.77
2022-11-02T01:15:10.600Z,1.50
2022-11-02T01:17:38.560Z,1.67
2022-11-02T01:20:06.624Z,1.40
2022-11-02T01:22:34.394Z,1.40
2022-11-02T01:25:03.128Z,1.70
2022-11-02T01:27:30.172Z,1.90
2022-11-02T01:29:57.082Z,1.60
2022-11-02T01:32:24.038Z,1.70
2022-11-02T01:34:50.919Z,1.57
2022-11-02T01:37:17.851Z,1.80
2022-11-02T01:39:44.737Z,1.80
2022-11-02T01:42:20.583Z,1.70
2022-11-02T01:44:47.562Z,1.77
2022-11-02T01:47:19.556Z,1.60
2022-11-02T01:49:49.463Z,1.77
2022-11-02T01:52:20.068Z,1.70
2022-11-02T01:54:52.008Z,1.70
2022-11-02T01:57:22.186Z,1.90
2022-11-02T01:59:53.064Z,1.73
2022-11-02T02:02:22.469Z,1.67
2022-11-02T02:04:53.680Z,1.60
2022-11-02T02:07:24.232Z,1.73
2022-11-02T02:09:52.774Z,1.67
2022-11-02T02:12:21.765Z,1.70
2022-11-02T02:14:49.306Z,1.73
2022-11-02T02:17:26.901Z,1.60
2022-11-02T02:20:02.146Z,1.83
2022-11-02T02:23:02.803Z,1.53
2022-11-02T02:25:51.600Z,1.63
2022-11-02T02:28:30.180Z,1.67
2022-11-02T02:31:01.876Z,1.50
2022-11-02T02:33:32.208Z,1.60
2022-11-02T02:36:04.162Z,1.70
2022-11-02T02:38:36.008Z,1.67
2022-11-02T02:41:09.821Z,1.67
2022-11-02T02:43:42.858Z,1.70
2022-11-02T02:46:15.609Z,1.90
2022-11-02T02:48:43.699Z,1.50
2022-11-02T02:51:16.298Z,1.70
2022-11-02T02:53:47.266Z,1.50
2022-11-02T02:56:20.240Z,1.60
2022-11-02T02:58:52.773Z,1.73
2022-11-02T03:01:20.268Z,1.30
2022-11-02T03:03:47.568Z,1.57
2022-11-02T03:06:19.952Z,1.70
2022-11-02T03:09:02.184Z,1.87
2022-11-02T03:11:31.350Z,1.43
2022-11-02T03:14:08.223Z,1.40
2022-11-02T03:16:48.133Z,1.33
2022-11-02T03:19:21.896Z,1.83
2022-11-02T03:21:55.154Z,1.20
2022-11-02T03:24:28.074Z,1.57
2022-11-02T03:27:06.844Z,1.37
2022-11-02T03:29:40.840Z,1.47
2022-11-02T03:32:13.909Z,1.40
2022-11-02T03:34:44.723Z,1.50
2022-11-02T03:37:16.142Z,1.50
2022-11-02T03:39:48.329Z,1.37
2022-11-02T03:42:20.824Z,1.40
2022-11-02T03:44:56.853Z,1.30
2022-11-02T03:47:26.051Z,1.60
2022-11-02T03:49:55.811Z,1.60
2022-11-02T03:52:28.481Z,1.50
2022-11-02T03:55:02.589Z,1.40
2022-11-02T03:57:35.224Z,1.90
2022-11-02T04:00:12.863Z,1.80
2022-11-02T04:02:47.775Z,1.47
2022-11-02T04:05:15.287Z,1.50
2022-11-02T04:08:07.290Z,1.80
2022-11-02T04:10:34.764Z,1.43
2022-11-02T04:13:20.140Z,1.40
2022-11-02T04:15:48.542Z,1.50
2022-11-02T04:18:34.088Z,1.40
2022-11-02T04:21:01.097Z,1.40
2022-11-02T04:23:46.469Z,1.60
2022-11-02T04:26:13.403Z,1.60
2022-11-02T04:28:44.202Z,1.43
2022-11-02T04:31:13.122Z,1.20
2022-11-02T04:33:41.352Z,1.57
2022-11-02T04:36:14.424Z,1.43
2022-11-02T04:38:41.738Z,1.40
2022-11-02T04:41:47.429Z,1.70
2022-11-02T04:44:29.033Z,1.60
2022-11-02T04:47:11.636Z,1.40
2022-11-02T04:49:38.541Z,1.73
2022-11-02T04:52:09.841Z,1.63
2022-11-02T04:54:39.711Z,1.67
2022-11-02T04:57:07.077Z,1.60
2022-11-02T04:59:34.286Z,1.80
2022-11-02T05:02:01.515Z,1.40
2022-11-02T05:04:30.216Z,1.40
2022-11-02T05:07:01.485Z,1.40
2022-11-02T05:09:31.077Z,1.53
2022-11-02T05:11:58.278Z,1.50
2022-11-02T05:14:25.571Z,1.67
2022-11-02T05:16:52.819Z,1.73
2022-11-02T05:19:19.749Z,1.70
2022-11-02T05:21:48.670Z,1.63
2022-11-02T05:24:15.776Z,1.67
2022-11-02T05:26:43.003Z,1.53
2022-11-02T05:29:10.150Z,1.50
2022-11-02T05:31:37.506Z,1.90
2022-11-02T05:34:04.416Z,1.93
2022-11-02T05:36:31.288Z,2.80
2022-11-02T05:39:00.151Z,2.20
2022-11-02T05:41:27.629Z,2.43
2022-11-02T05:43:56.206Z,2.03
2022-11-02T05:46:24.804Z,1.73
2022-11-02T05:48:51.862Z,1.87
2022-11-02T05:51:18.706Z,1.67
2022-11-02T05:53:45.510Z,1.60
2022-11-02T05:56:14.567Z,1.50
2022-11-02T05:58:41.532Z,1.70
2022-11-02T06:01:10.744Z,1.70
2022-11-02T06:03:37.960Z,1.70
2022-11-02T06:06:06.829Z,1.80
2022-11-02T06:08:34.750Z,1.93
2022-11-02T06:11:04.435Z,1.70
2022-11-02T06:13:32.922Z,1.80
2022-11-02T06:16:00.030Z,1.40
2022-11-02T06:18:26.987Z,1.57
2022-11-02T06:20:53.933Z,1.37
2022-11-02T06:23:20.855Z,1.73
2022-11-02T06:25:51.750Z,1.70
2022-11-02T06:28:18.988Z,1.47
2022-11-02T06:30:47.849Z,1.63
2022-11-02T06:33:14.952Z,1.53
2022-11-02T06:35:44.812Z,1.50
2022-11-02T06:38:11.796Z,1.50
2022-11-02T06:40:38.782Z,1.80
2022-11-02T06:43:21.557Z,1.60
2022-11-02T06:45:50.327Z,1.90
2022-11-02T06:48:17.495Z,1.70
2022-11-02T06:50:44.359Z,1.70
2022-11-02T06:53:11.696Z,1.87
2022-11-02T06:55:38.759Z,1.80
2022-11-02T06:58:05.713Z,1.73
2022-11-02T07:00:32.727Z,1.60
2022-11-02T07:03:02.380Z,1.83
2022-11-02T07:05:30.154Z,1.50
2022-11-02T07:07:57.278Z,1.50
2022-11-02T07:10:24.784Z,1.23
2022-11-02T07:12:55.458Z,1.30
2022-11-02T07:15:24.269Z,1.70
2022-11-02T07:17:51.904Z,1.63
2022-11-02T07:20:20.158Z,1.67
2022-11-02T07:22:52.664Z,1.53
2022-11-02T07:25:19.575Z,1.40
2022-11-02T07:27:46.564Z,1.80
2022-11-02T07:30:13.960Z,1.63
2022-11-02T07:32:41.556Z,1.50
2022-11-02T07:35:09.957Z,1.93
2022-11-02T07:37:38.327Z,1.73
2022-11-02T07:40:07.717Z,1.50
2022-11-02T07:42:34.603Z,1.67
2022-11-02T07:45:04.978Z,1.60
2022-11-02T07:47:33.176Z,1.40
2022-11-02T07:50:00.776Z,1.60
2022-11-02T07:52:27.653Z,1.73
2022-11-02T07:54:55.884Z,1.73
2022-11-02T07:57:22.775Z,1.63
2022-11-02T07:59:49.691Z,1.63
2022-11-02T08:02:16.702Z,1.50
2022-11-02T08:04:45.010Z,1.80
2022-11-02T08:07:12.636Z,1.93
2022-11-02T08:09:39.607Z,1.60
2022-11-02T08:12:08.038Z,1.87
2022-11-02T08:14:34.939Z,1.80
2022-11-02T08:17:01.812Z,1.33
2022-11-02T08:19:28.729Z,1.30
2022-11-02T08:21:56.181Z,1.50
2022-11-02T08:24:23.098Z,1.40
2022-11-02T08:26:53.861Z,1.30
2022-11-02T08:29:23.380Z,1.30
2022-11-02T08:31:50.506Z,1.60
2022-11-02T08:34:17.352Z,1.20
2022-11-02T08:36:44.258Z,1.40
2022-11-02T08:39:16.043Z,1.30
2022-11-02T08:41:45.522Z,1.50
2022-11-02T08:44:12.361Z,1.60
2022-11-02T08:46:40.681Z,1.30
2022-11-02T08:49:07.598Z,1.40
2022-11-02T08:51:34.410Z,1.40
2022-11-02T08:54:01.324Z,1.20
2022-11-02T08:56:28.499Z,1.60
2022-11-02T08:58:55.446Z,1.23
2022-11-02T09:01:22.395Z,1.40
2022-11-02T09:03:50.681Z,1.30
2022-11-02T09:06:17.551Z,1.30
2022-11-02T09:08:44.363Z,1.30
2022-11-02T09:14:04.659Z,1.20
2022-11-02T09:16:31.798Z,1.50
2022-11-02T09:19:00.105Z,1.20
2022-11-02T09:21:27.008Z,1.20
2022-11-02T09:23:53.883Z,1.30
2022-11-02T09:26:20.765Z,1.10
2022-11-02T09:28:47.587Z,1.20
2022-11-02T09:31:14.493Z,1.20
2022-11-02T09:33:41.477Z,0.90
2022-11-02T09:36:10.060Z,1.43
2022-11-02T09:38:36.984Z,1.50
2022-11-02T09:41:12.050Z,1.20
2022-11-02T09:43:46.261Z,1.20
2022-11-02T09:46:19.149Z,1.30
2022-11-02T09:48:50.981Z,1.17
2022-11-02T09:51:22.110Z,1.30
2022-11-02T09:53:55.797Z,1.20
2022-11-02T09:56:23.110Z,1.47
2022-11-02T09:58:56.209Z,1.30
2022-11-02T10:01:40.459Z,1.60
2022-11-02T10:04:32.064Z,1.57
2022-11-02T10:07:06.863Z,1.40
2022-11-02T10:09:45.170Z,1.60
2022-11-02T10:12:14.428Z,1.30
2022-11-02T10:14:55.065Z,1.40
2022-11-02T10:17:25.676Z,1.30
2022-11-02T10:19:56.200Z,1.43
2022-11-02T10:22:27.855Z,1.33
2022-11-02T10:24:58.077Z,1.13
2022-11-02T10:27:27.234Z,1.40
2022-11-02T10:29:59.272Z,1.00
2022-11-02T10:32:26.204Z,1.60
2022-11-02T10:35:04.312Z,0.90
2022-11-02T10:37:55.921Z,1.20
2022-11-02T10:40:39.973Z,1.40
2022-11-02T10:43:19.311Z,1.40
2022-11-02T10:46:15.356Z,1.40
2022-11-02T10:48:52.137Z,1.73
2022-11-02T10:51:21.345Z,1.50
2022-11-02T10:53:51.825Z,1.40
2022-11-02T10:56:21.653Z,1.30
2022-11-02T10:58:55.893Z,1.17
2022-11-02T11:01:22.910Z,1.30
2022-11-02T11:03:55.662Z,1.57
2022-11-02T11:06:23.966Z,1.30
2022-11-02T11:08:58.296Z,1.30
2022-11-02T11:11:28.257Z,1.50
2022-11-02T11:16:49.113Z,1.40
2022-11-02T11:19:39.404Z,1.40
2022-11-02T11:22:25.562Z,1.63
2022-11-02T11:24:54.219Z,1.40
2022-11-02T11:27:22.107Z,1.40
2022-11-02T11:29:55.307Z,1.40
2022-11-02T11:32:29.889Z,1.23
2022-11-02T11:35:00.209Z,1.50
2022-11-02T11:37:27.479Z,1.40
2022-11-02T11:40:00.721Z,1.50
2022-11-02T11:42:31.303Z,1.70
2022-11-02T11:45:01.569Z,1.47
2022-11-02T11:47:31.008Z,1.33
2022-11-02T11:50:08.534Z,2.00
2022-11-02T11:52:39.932Z,1.20
2022-11-02T11:55:23.072Z,1.50
2022-11-02T11:58:05.984Z,1.40
2022-11-02T12:00:34.439Z,1.50
2022-11-02T12:03:06.614Z,1.47
2022-11-02T12:05:46.238Z,1.40
2022-11-02T12:08:35.780Z,1.20
2022-11-02T12:11:21.160Z,1.10
2022-11-02T12:14:02.995Z,1.20
2022-11-02T12:16:40.543Z,1.37
2022-11-02T12:19:18.256Z,1.27
2022-11-02T12:21:59.228Z,1.10
2022-11-02T12:24:44.265Z,1.30
2022-11-02T12:27:24.249Z,1.33
2022-11-02T12:30:15.131Z,1.30
2022-11-02T12:33:05.404Z,1.30
2022-11-02T12:35:58.093Z,1.50
2022-11-02T12:38:46.810Z,1.20
2022-11-02T12:41:17.056Z,1.10
2022-11-02T12:43:47.867Z,1.10
2022-11-02T12:46:30.709Z,1.20
2022-11-02T12:49:19.849Z,1.07
2022-11-02T12:51:54.000Z,1.30
2022-11-02T12:54:24.384Z,1.20
2022-11-02T12:56:52.683Z,1.13
2022-11-02T12:59:23.473Z,1.20
2022-11-02T13:01:54.859Z,1.10
2022-11-02T13:04:29.527Z,1.40
2022-11-02T13:07:01.690Z,1.37
2022-11-02T13:09:32.828Z,1.40
2022-11-02T13:12:02.843Z,1.10
2022-11-02T13:14:39.631Z,1.43
2022-11-02T13:17:15.659Z,1.63
2022-11-02T13:19:48.276Z,1.20
2022-11-02T13:22:18.143Z,1.40
2022-11-02T13:24:48.332Z,1.50
2022-11-02T13:27:36.440Z,1.30
2022-11-02T13:30:13.180Z,1.23
2022-11-02T13:32:43.810Z,1.50
2022-11-02T13:35:18.834Z,1.40
2022-11-02T13:37:48.314Z,1.50
2022-11-02T13:40:21.735Z,1.07
2022-11-02T13:43:19.165Z,1.07
2022-11-02T13:46:12.155Z,1.20
2022-11-02T13:48:48.573Z,1.33
2022-11-02T13:51:24.691Z,1.70
2022-11-02T13:53:56.252Z,1.13
2022-11-02T13:56:25.646Z,1.33
2022-11-02T13:58:59.776Z,1.33
2022-11-02T14:01:31.643Z,1.30
2022-11-02T14:04:03.924Z,1.30
2022-11-02T14:06:33.399Z,1.20
2022-11-02T14:09:03.567Z,1.27
2022-11-02T14:11:44.850Z,1.30
2022-11-02T14:14:21.514Z,1.40
2022-11-02T14:17:12.963Z,1.20
2022-11-02T14:19:54.638Z,1.23
2022-11-02T14:22:22.327Z,1.40
2022-11-02T14:25:16.982Z,1.30
2022-11-02T14:27:44.214Z,1.40
2022-11-02T14:30:44.113Z,1.47
2022-11-02T14:33:37.731Z,1.40
2022-11-02T14:36:09.760Z,1.30
2022-11-02T14:38:51.059Z,1.70
2022-11-02T14:41:46.941Z,1.67
2022-11-02T14:44:37.016Z,1.10
2022-11-02T14:47:07.840Z,1.03
2022-11-02T14:49:40.090Z,1.30
2022-11-02T14:52:17.906Z,1.30
2022-11-02T14:54:49.374Z,1.10
2022-11-02T14:57:23.426Z,1.50
2022-11-02T14:59:52.240Z,1.20
2022-11-02T15:02:23.747Z,1.30
2022-11-02T15:04:55.839Z,1.30
2022-11-02T15:07:30.019Z,1.53
2022-11-02T15:09:59.040Z,1.30
2022-11-02T15:12:38.830Z,1.40
2022-11-02T15:15:27.981Z,1.17
2022-11-02T15:18:00.992Z,1.20
2022-11-02T15:20:31.620Z,1.37
2022-11-02T15:23:24.005Z,1.10
2022-11-02T15:25:57.675Z,1.13
2022-11-02T15:28:28.245Z,1.13
2022-11-02T15:30:58.910Z,1.20
2022-11-02T15:33:36.255Z,1.20
2022-11-02T15:36:07.064Z,1.20
2022-11-02T15:38:39.704Z,1.10
2022-11-02T15:41:18.670Z,1.30
2022-11-02T15:44:18.647Z,1.47
2022-11-02T15:46:58.299Z,1.73
2022-11-02T15:49:50.032Z,2.13
2022-11-02T15:53:01.618Z,1.90
2022-11-02T15:55:39.632Z,2.33
2022-11-02T15:58:18.878Z,2.30
2022-11-02T16:01:05.275Z,2.50
2022-11-02T16:03:33.381Z,2.00
2022-11-02T16:06:04.830Z,2.57
2022-11-02T16:08:37.849Z,2.17
2022-11-02T16:11:06.238Z,2.70
2022-11-02T16:13:55.584Z,2.70
2022-11-02T16:16:24.959Z,2.37
2022-11-02T16:18:53.890Z,2.80
2022-11-02T16:21:21.817Z,2.60
2022-11-02T16:23:55.547Z,2.27
2022-11-02T16:26:25.176Z,2.60
2022-11-02T16:28:54.266Z,2.50
2022-11-02T16:31:23.530Z,2.30
2022-11-02T16:33:52.148Z,2.80
2022-11-02T16:36:21.514Z,4.50
2022-11-02T16:38:56.333Z,2.50
2022-11-02T16:41:25.926Z,2.70
2022-11-02T16:43:53.333Z,2.47
2022-11-02T16:46:29.604Z,2.43
2022-11-02T16:49:18.715Z,2.70
2022-11-02T16:51:50.644Z,2.10
2022-11-02T16:54:40.256Z,2.30
2022-11-02T16:57:14.748Z,2.80
2022-11-02T16:59:51.438Z,3.20
2022-11-02T17:02:19.489Z,3.60
2022-11-02T17:04:48.694Z,3.50
2022-11-02T17:07:22.235Z,3.40
2022-11-02T17:09:54.032Z,3.30
2022-11-02T17:12:28.862Z,4.10
2022-11-02T17:14:56.693Z,2.83
2022-11-02T17:17:38.685Z,2.93
2022-11-02T17:20:15.254Z,3.40
2022-11-02T17:22:51.197Z,3.70
2022-11-02T17:25:22.726Z,3.30
2022-11-02T17:27:50.510Z,3.40
2022-11-02T17:30:43.277Z,4.60
2022-11-02T17:33:18.528Z,3.80
2022-11-02T17:35:46.983Z,4.27
2022-11-02T17:38:14.213Z,3.97
2022-11-02T17:40:42.581Z,4.23
2022-11-02T17:43:09.399Z,4.60
2022-11-02T17:45:38.191Z,4.43
2022-11-02T17:48:06.894Z,3.93
2022-11-02T17:50:35.743Z,4.60
2022-11-02T17:53:03.610Z,4.57
2022-11-02T17:55:31.868Z,6.07
2022-11-02T17:58:00.457Z,7.80
2022-11-02T18:00:28.077Z,8.07
2022-11-02T18:02:56.634Z,7.83
2022-11-02T18:05:26.031Z,8.07
2022-11-02T18:07:53.800Z,7.57
2022-11-02T18:10:22.618Z,7.57
2022-11-02T18:12:49.728Z,8.10
2022-11-02T18:15:20.665Z,8.10
2022-11-02T18:17:47.643Z,7.17
2022-11-02T18:20:15.552Z,7.57
2022-11-02T18:22:42.894Z,7.87
2022-11-02T18:25:11.149Z,7.67
2022-11-02T18:27:38.172Z,7.70
2022-11-02T18:30:07.306Z,7.77
2022-11-02T18:32:37.717Z,7.93
2022-11-02T18:35:05.795Z,8.43
2022-11-02T18:37:32.831Z,8.47
2022-11-02T18:40:00.028Z,8.27
2022-11-02T18:42:26.962Z,7.40
2022-11-02T18:44:53.853Z,8.40
2022-11-02T18:47:20.727Z,8.27
2022-11-02T18:49:49.032Z,7.97
2022-11-02T18:52:19.813Z,7.63
2022-11-02T18:54:49.432Z,8.27
2022-11-02T18:57:16.319Z,8.00
2022-11-02T18:59:43.292Z,7.97
2022-11-02T19:02:11.052Z,7.83
2022-11-02T19:04:38.300Z,7.33
2022-11-02T19:07:25.337Z,7.80
2022-11-02T19:09:52.214Z,8.03
2022-11-02T19:12:21.910Z,7.50
2022-11-02T19:14:51.336Z,8.13
2022-11-02T19:17:19.111Z,7.33
2022-11-02T19:19:46.631Z,7.00
2022-11-02T19:22:16.034Z,6.30
2022-11-02T19:24:43.137Z,6.90
2022-11-02T19:27:13.717Z,6.80
2022-11-02T19:29:41.155Z,6.60
2022-11-02T19:32:08.333Z,6.10
2022-11-02T19:34:36.751Z,6.20
2022-11-02T19:37:04.001Z,6.10
2022-11-02T19:39:32.506Z,6.90
2022-11-02T19:41:59.636Z,6.20
2022-11-02T19:44:26.572Z,5.70
2022-11-02T19:46:53.416Z,6.87
2022-11-02T19:49:20.291Z,6.37
2022-11-02T19:51:47.552Z,6.10
2022-11-02T19:54:14.550Z,6.70
2022-11-02T19:56:42.771Z,7.50
2022-11-02T19:59:09.570Z,6.10
2022-11-02T20:01:38.644Z,5.47
2022-11-02T20:04:06.484Z,8.63
2022-11-02T20:06:35.110Z,6.33
2022-11-02T20:09:04.370Z,6.73
2022-11-02T20:11:31.749Z,5.90
2022-11-02T20:14:01.561Z,6.00
2022-11-02T20:16:28.908Z,6.50
2022-11-02T20:18:56.254Z,6.23
2022-11-02T20:21:30.082Z,5.50
2022-11-02T20:23:58.463Z,6.00
2022-11-02T20:26:27.394Z,6.10
2022-11-02T20:28:55.309Z,5.67
2022-11-02T20:31:26.041Z,6.90
2022-11-02T20:33:53.363Z,5.90
2022-11-02T20:36:20.327Z,6.63
2022-11-02T20:38:47.359Z,5.73
2022-11-02T20:41:16.321Z,5.63
2022-11-02T20:43:46.052Z,5.43
2022-11-02T20:49:20.698Z,4.87
2022-11-02T20:51:49.854Z,5.03
2022-11-02T20:54:18.668Z,5.37
2022-11-02T20:56:46.052Z,4.90
2022-11-02T20:59:12.933Z,4.50
2022-11-02T21:01:39.922Z,4.83
2022-11-02T21:04:08.345Z,5.30
2022-11-02T21:06:35.192Z,4.40
2022-11-02T21:09:08.986Z,5.20
2022-11-02T21:11:56.335Z,5.13
2022-11-02T21:14:23.486Z,4.93
2022-11-02T21:16:50.320Z,4.63
2022-11-02T21:19:18.591Z,4.83
2022-11-02T21:21:45.490Z,5.13
2022-11-02T21:24:12.554Z,4.73
2022-11-02T21:26:39.486Z,4.73
2022-11-02T21:29:06.439Z,4.03
2022-11-02T21:31:33.478Z,4.50
2022-11-02T21:34:00.526Z,4.97
2022-11-02T21:36:28.755Z,4.13
2022-11-02T21:38:56.005Z,4.60
2022-11-02T21:41:28.954Z,4.90
2022-11-02T21:43:56.841Z,4.63
2022-11-02T21:46:27.559Z,4.50
2022-11-02T21:48:55.654Z,5.33
2022-11-02T21:51:23.045Z,4.80
2022-11-02T21:53:51.873Z,5.10
2022-11-02T21:56:21.229Z,5.03
2022-11-02T21:58:48.758Z,4.80
2022-11-02T22:01:36.355Z,4.90
2022-11-02T22:04:03.855Z,4.93
2022-11-02T22:06:31.849Z,5.10
2022-11-02T22:09:00.752Z,4.90
2022-11-02T22:11:28.316Z,5.17
2022-11-02T22:13:56.817Z,5.07
2022-11-02T22:16:25.780Z,4.80
2022-11-02T22:18:54.921Z,5.23
2022-11-02T22:21:22.307Z,4.87
2022-11-02T22:23:49.859Z,5.03
2022-11-02T22:26:20.293Z,5.10
2022-11-02T22:28:48.057Z,4.90
2022-11-02T22:31:16.951Z,5.33
2022-11-02T22:33:45.304Z,5.30
2022-11-02T22:36:14.003Z,5.40
2022-11-02T22:38:56.287Z,5.50
2022-11-02T22:41:26.732Z,5.67
2022-11-02T22:43:56.262Z,5.53
2022-11-02T22:46:24.499Z,5.83
2022-11-02T22:48:52.447Z,6.37
2022-11-02T22:51:20.928Z,7.07
2022-11-02T22:53:48.409Z,6.20
2022-11-02T22:56:17.045Z,5.80
2022-11-02T22:58:46.563Z,5.80
2022-11-02T23:01:16.477Z,5.60
2022-11-02T23:03:43.693Z,5.40
2022-11-02T23:06:10.980Z,5.07
2022-11-02T23:08:39.869Z,4.50
2022-11-02T23:11:24.254Z,4.43
2022-11-02T23:13:55.846Z,4.17
2022-11-02T23:16:25.112Z,4.10
2022-11-02T23:19:20.335Z,3.50
2022-11-02T23:22:11.117Z,3.67
2022-11-02T23:24:56.944Z,3.30
2022-11-02T23:27:23.886Z,3.63
2022-11-02T23:30:10.821Z,3.60
2022-11-02T23:32:38.300Z,3.27
2022-11-02T23:35:24.554Z,3.23
2022-11-02T23:38:02.317Z,3.17
2022-11-02T23:40:29.382Z,3.50
2022-11-02T23:42:56.437Z,3.33
2022-11-02T23:45:24.712Z,3.40
2022-11-02T23:47:57.982Z,3.77
2022-11-02T23:50:47.145Z,3.50
2022-11-02T23:53:35.106Z,3.73
2022-11-02T23:56:20.817Z,3.73
2022-11-02T23:58:47.755Z,3.60
